Aviation Digital Data Service (ADDS)

Output produced by METARs form (2155 UTC 19 February 2018)
found at http://www.aviationweather.gov/adds/metars/
 
GQPP 192100Z 01015KT 8000 NSC 17/13 Q1014 NOSIG
TAF GQPP 191710Z 1918/2018 36015KT 8000 NSC 
     PROB30 
     TEMPO 1920/1924 -DZ